KHQM Airport Information

Runway Information
Runway 06 Length 5000 ft width 150 ft
Elevation 18 ft Threshold 0 ft Heading 80
Runway 24 Length 5000 ft Width 150 ft
Elevation 15 ft Threshold 0 ft Heading 260
Airport Frequencies
Type ASOS Name ASOS Frequency 135.775 MHZ
Type CNTR Name SEATTLE CN Frequency 128.3 MHZ
Type RDO Name SEATTLE RD Frequency 122.2 MHZ
Type UNIC Name CTAF/UNICO Frequency 122.7 MHZ
Airport Navaids
Type NDB Name Abern Frequency 236 KHZ
Type VORTAC Name Hoquiam Frequency 117700 KHZ
Airport Weather Information & NOTAM
ADDS - METARS form results

(2012 UTC 16 July 2018)
 
METAR text: KHQM 161953Z AUTO 22011KT 6SM HZ CLR 18/15 A3006 RMK AO2 SLP184 T01830150
Conditions at: KHQM (HOQUIAM , WA, US) observed 1953 UTC 16 July 2018
Temperature: 18.3°C (65°F)
Dewpoint: 15.0°C (59°F) [RH = 81%]
Pressure (altimeter): 30.06 inches Hg (1018.0 mb)
[Sea-level pressure: 1018.4 mb]
Winds: from the SW (220 degrees) at 13 MPH (11 knots; 5.7 m/s)
Visibility: 6 miles (10 km)
Ceiling: at least 12,000 feet AGL
Clouds: sky clear below 12,000 feet AGL
Weather: HZ  (haze)

METAR text: KHQM 161916Z AUTO 21010KT 6SM HZ SCT007 18/15 A3007 RMK AO2 T01830150
Conditions at: KHQM (HOQUIAM , WA, US) observed 1916 UTC 16 July 2018
Temperature: 18.3°C (65°F)
Dewpoint: 15.0°C (59°F) [RH = 81%]
Pressure (altimeter): 30.07 inches Hg (1018.4 mb)
Winds: from the SSW (210 degrees) at 12 MPH (10 knots; 5.2 m/s)
Visibility: 6 miles (10 km)
Ceiling: at least 12,000 feet AGL
Clouds: scattered clouds at 700 feet AGL
Weather: HZ  (haze)